Time;durP1;ratioP1;P1;durP2;ratioP2;P2;SDS_P1;SDS_P2;PMS_P1;PMS_P2;Temp;Humidity;BMP_temperature;BMP_pressure;BME280_temperature;BME280_humidity;BME280_pressure;Samples;Min_cycle;Max_cycle;Signal;HPM_P1;HPM_P2
2022/12/24 00:01:15;;;;;;;70.65;45.15;;;;;;;3.79;77.22;98752.13;1764119;81;21142;-39
2022/12/24 00:03:41;;;;;;;65.67;41.58;;;;;;;3.76;76.87;98757.37;1763989;81;20999;-39
2022/12/24 00:06:12;;;;;;;64.65;40.75;;;;;;;3.73;76.83;98753.98;1764410;81;21012;-39
2022/12/24 00:08:40;;;;;;;66.12;41.05;;;;;;;3.83;76.52;98758.95;1763649;81;21035;-39
2022/12/24 00:11:07;;;;;;;68.42;41.10;;;;;;;3.91;76.12;98760.23;1764252;81;21023;-39
2022/12/24 00:13:33;;;;;;;71.22;41.70;;;;;;;3.87;75.77;98761.98;1764159;81;21149;-39
2022/12/24 00:16:00;;;;;;;67.65;43.02;;;;;;;3.83;75.75;98753.03;1758398;81;21027;-39
2022/12/24 00:18:27;;;;;;;71.65;43.75;;;;;;;3.82;75.58;98752.04;1764211;81;21533;-39
2022/12/24 00:20:53;;;;;;;65.62;41.40;;;;;;;3.78;75.51;98754.58;1764224;81;21010;-39
2022/12/24 00:23:20;;;;;;;64.62;39.73;;;;;;;3.78;75.38;98753.23;1764307;81;20889;-39
2022/12/24 00:25:47;;;;;;;62.62;39.83;;;;;;;3.84;75.22;98751.92;1764269;81;21742;-39
2022/12/24 00:28:14;;;;;;;67.82;42.00;;;;;;;3.90;74.98;98755.98;1764148;81;21008;-39
2022/12/24 00:30:41;;;;;;;66.17;41.85;;;;;;;3.90;75.03;98755.98;1764218;81;21071;-39
2022/12/24 00:33:09;;;;;;;67.95;43.42;;;;;;;3.92;74.99;98751.05;1764400;81;20944;-39
2022/12/24 00:35:37;;;;;;;70.17;44.13;;;;;;;3.87;74.78;98756.61;1764186;81;21095;-39
2022/12/24 00:38:05;;;;;;;72.85;42.90;;;;;;;3.82;74.76;98754.72;1764541;81;21084;-39
2022/12/24 00:40:32;;;;;;;65.90;40.75;;;;;;;3.75;74.83;98755.80;1764060;81;20945;-39
2022/12/24 00:42:59;;;;;;;64.05;40.58;;;;;;;3.68;75.01;98751.53;1764050;81;21023;-39
2022/12/24 00:45:26;;;;;;;64.17;39.95;;;;;;;3.73;74.98;98746.73;1763884;81;21378;-39
2022/12/24 00:47:53;;;;;;;65.32;40.48;;;;;;;3.78;74.91;98748.42;1764004;81;21085;-39
2022/12/24 00:50:20;;;;;;;66.22;41.75;;;;;;;3.77;75.14;98745.54;1764110;81;21236;-39
2022/12/24 00:52:48;;;;;;;71.50;42.98;;;;;;;3.78;75.17;98749.21;1763973;81;21015;-39
2022/12/24 00:55:14;;;;;;;68.65;43.13;;;;;;;3.79;75.07;98749.45;1764122;81;20970;-39
2022/12/24 00:57:41;;;;;;;70.12;42.55;;;;;;;3.79;75.10;98752.68;1764230;81;21538;-39
2022/12/24 01:00:09;;;;;;;67.15;40.23;;;;;;;3.78;75.02;98747.88;1764093;81;21020;-39
2022/12/24 01:02:36;;;;;;;46.08;30.37;;;;;;;3.78;74.89;98746.53;1764248;81;21658;-39
2022/12/24 01:05:10;;;;;;;63.70;40.10;;;;;;;3.82;74.79;98744.78;1764011;81;21652;-39
2022/12/24 01:07:43;;;;;;;63.65;40.45;;;;;;;3.85;74.75;98753.50;1764283;81;21628;-39
2022/12/24 01:10:11;;;;;;;67.05;41.75;;;;;;;3.83;74.85;98752.24;1764509;81;21083;-39
2022/12/24 01:12:38;;;;;;;66.22;42.95;;;;;;;3.77;74.85;98748.22;1764548;81;20950;-39
2022/12/24 01:15:06;;;;;;;67.05;41.65;;;;;;;3.72;75.09;98755.91;1764228;81;21146;-39
2022/12/24 01:17:34;;;;;;;63.60;40.83;;;;;;;3.72;75.24;98758.59;1764091;81;21024;-39
2022/12/24 01:20:01;;;;;;;69.07;40.12;;;;;;;3.73;75.25;98759.34;1763902;81;20995;-39
2022/12/24 01:22:27;;;;;;;57.60;38.17;;;;;;;3.73;75.27;98758.00;1764262;81;21530;-39
2022/12/24 01:24:54;;;;;;;63.68;39.92;;;;;;;3.78;75.17;98753.23;1763895;81;21532;-39
2022/12/24 01:27:21;;;;;;;59.73;38.00;;;;;;;3.86;75.16;98751.05;1763987;81;21138;-39
2022/12/24 01:29:48;;;;;;;61.85;39.13;;;;;;;3.90;75.22;98749.27;1763969;81;20936;-39
2022/12/24 01:32:14;;;;;;;63.13;38.88;;;;;;;3.94;75.09;98742.13;1763575;81;20975;-39
2022/12/24 01:34:41;;;;;;;60.10;37.95;;;;;;;3.97;75.12;98737.23;1757250;81;21522;-39
2022/12/24 01:37:08;;;;;;;61.35;38.95;;;;;;;3.99;75.00;98737.11;1763841;81;21068;-39
2022/12/24 01:39:34;;;;;;;57.23;36.68;;;;;;;4.00;74.82;98737.90;1763475;81;21254;-39
2022/12/24 01:44:50;;;;;;;57.17;36.85;;;;;;;4.14;74.44;98737.05;1763394;81;21007;-39
2022/12/24 01:47:27;;;;;;;59.55;37.78;;;;;;;4.14;74.21;98738.38;1763685;81;21040;-39
2022/12/24 01:50:00;;;;;;;59.03;37.00;;;;;;;4.13;74.32;98732.23;1763455;81;21462;-39
2022/12/24 01:52:34;;;;;;;61.02;38.20;;;;;;;4.15;74.32;98735.37;1763771;81;21171;-39
2022/12/24 01:55:16;;;;;;;57.20;38.05;;;;;;;4.13;74.06;98734.13;1763786;81;20928;-39
2022/12/24 01:57:54;;;;;;;62.73;38.42;;;;;;;4.09;74.22;98730.55;1763661;81;20996;-39
2022/12/24 02:00:20;;;;;;;56.63;36.48;;;;;;;4.07;74.20;98728.19;1761510;81;20928;-39
2022/12/24 02:02:48;;;;;;;61.60;37.17;;;;;;;4.12;74.08;98736.02;1763599;81;21084;-39
2022/12/24 02:05:33;;;;;;;56.02;36.13;;;;;;;4.20;73.90;98727.67;1763706;81;20973;-39
2022/12/24 02:07:59;;;;;;;56.28;36.40;;;;;;;4.22;73.61;98730.23;1752040;81;21577;-39
2022/12/24 02:10:27;;;;;;;56.70;37.70;;;;;;;4.21;73.70;98734.61;1763502;81;21031;-39
2022/12/24 02:12:54;;;;;;;58.90;37.45;;;;;;;4.18;73.68;98725.87;1763409;81;20996;-39
2022/12/24 02:15:22;;;;;;;56.83;36.80;;;;;;;4.17;73.65;98727.77;1763417;81;21027;-39
2022/12/24 02:18:09;;;;;;;57.85;37.67;;;;;;;4.15;73.74;98723.86;1763368;81;21151;-39
2022/12/24 02:21:11;;;;;;;57.00;36.15;;;;;;;4.12;73.72;98720.48;1762421;81;20955;-39
2022/12/24 02:24:03;;;;;;;51.18;33.73;;;;;;;4.11;73.70;98725.65;1762476;81;21039;-39
2022/12/24 02:26:47;;;;;;;54.53;35.60;;;;;;;4.16;73.71;98720.07;1763123;81;21385;-39
2022/12/24 02:29:45;;;;;;;57.90;36.13;;;;;;;4.17;73.67;98716.25;1761723;81;21099;-39
2022/12/24 02:32:38;;;;;;;58.55;37.33;;;;;;;4.14;73.73;98724.97;1762835;81;22075;-39
2022/12/24 02:35:31;;;;;;;53.02;34.80;;;;;;;4.08;73.75;98728.42;1763431;81;21520;-39
2022/12/24 02:38:02;;;;;;;57.05;36.05;;;;;;;4.03;73.93;98721.14;1755303;81;21494;-39
2022/12/24 02:40:34;;;;;;;58.13;34.78;;;;;;;3.99;74.09;98712.98;1763221;81;21027;-39
2022/12/24 02:43:06;;;;;;;54.35;33.85;;;;;;;4.02;74.08;98723.61;1763331;81;21015;-39
2022/12/24 02:45:33;;;;;;;52.67;34.43;;;;;;;4.11;73.96;98722.97;1763663;81;21090;-39
2022/12/24 02:48:00;;;;;;;54.50;35.30;;;;;;;4.16;73.73;98719.52;1763230;81;21020;-39
2022/12/24 02:50:27;;;;;;;55.48;35.38;;;;;;;4.13;73.80;98715.35;1763425;81;20945;-39
2022/12/24 02:52:54;;;;;;;56.68;35.48;;;;;;;4.14;73.83;98711.00;1763502;81;21076;-39
2022/12/24 02:55:38;;;;;;;53.58;35.05;;;;;;;4.15;73.87;98711.23;1763528;81;21004;-39
2022/12/24 02:58:26;;;;;;;52.85;35.35;;;;;;;4.17;73.83;98711.67;1762569;81;21363;-39
2022/12/24 03:01:17;;;;;;;53.05;33.63;;;;;;;4.12;73.87;98717.25;1762750;81;20972;-39
2022/12/24 03:03:52;;;;;;;49.53;32.75;;;;;;;4.14;73.85;98719.61;1763688;81;20971;-39
2022/12/24 03:06:48;;;;;;;51.55;34.10;;;;;;;4.18;73.95;98715.14;1762887;81;20964;-39
2022/12/24 03:09:29;;;;;;;49.30;33.95;;;;;;;4.21;74.04;98717.17;1763398;81;21084;-39
2022/12/24 03:12:10;;;;;;;55.48;35.98;;;;;;;4.20;74.22;98712.92;1720372;81;21347;-39
2022/12/24 03:14:38;;;;;;;54.75;35.43;;;;;;;4.22;74.36;98718.72;1763351;81;21015;-39
2022/12/24 03:17:04;;;;;;;55.33;35.03;;;;;;;4.23;74.31;98717.05;1763488;81;21035;-39
2022/12/24 03:19:32;;;;;;;55.10;35.17;;;;;;;4.21;74.30;98721.95;1763281;81;20984;-39
2022/12/24 03:21:58;;;;;;;49.45;32.08;;;;;;;4.24;74.15;98719.19;1758474;81;21016;-39
2022/12/24 03:24:25;;;;;;;50.10;33.30;;;;;;;4.27;74.01;98726.55;1763387;81;21305;-39
2022/12/24 03:26:52;;;;;;;49.93;33.75;;;;;;;4.27;74.01;98730.58;1763181;81;20977;-39
2022/12/24 03:29:18;;;;;;;52.00;35.25;;;;;;;4.22;74.21;98726.77;1763521;81;20988;-39
2022/12/24 03:31:48;;;;;;;54.03;36.10;;;;;;;4.20;74.36;98726.33;1763354;80;21025;-39
2022/12/24 03:34:15;;;;;;;50.17;33.58;;;;;;;4.16;74.35;98728.12;1763508;81;20975;-39
2022/12/24 03:36:42;;;;;;;50.28;35.13;;;;;;;4.11;74.55;98724.30;1763305;81;21135;-39
2022/12/24 03:39:09;;;;;;;49.25;32.67;;;;;;;4.08;74.64;98720.92;1763221;81;21597;-39
2022/12/24 03:41:36;;;;;;;50.05;33.05;;;;;;;4.06;74.69;98721.28;1763301;81;20964;-39
2022/12/24 03:44:03;;;;;;;49.23;33.23;;;;;;;4.11;74.78;98713.58;1763438;81;21579;-39
2022/12/24 03:46:31;;;;;;;52.95;34.35;;;;;;;4.12;74.82;98723.17;1763261;81;20925;-39
2022/12/24 03:48:58;;;;;;;52.23;34.33;;;;;;;4.12;75.20;98721.83;1763471;81;21081;-39
2022/12/24 03:51:25;;;;;;;55.38;35.65;;;;;;;4.09;75.06;98715.80;1763360;81;21035;-39
2022/12/24 03:53:54;;;;;;;54.63;35.30;;;;;;;4.04;75.16;98724.84;1763312;81;21466;-39
2022/12/24 03:56:22;;;;;;;50.67;34.15;;;;;;;4.00;75.29;98717.23;1763273;81;21884;-39
2022/12/24 03:58:49;;;;;;;52.38;33.42;;;;;;;4.00;75.34;98717.78;1763862;81;21064;-39
2022/12/24 04:01:16;;;;;;;50.78;34.63;;;;;;;4.04;75.39;98716.79;1763334;81;21230;-39
2022/12/24 04:03:42;;;;;;;53.95;35.52;;;;;;;4.08;75.56;98708.86;1763276;81;20933;-39
2022/12/24 04:06:14;;;;;;;51.25;34.95;;;;;;;4.12;75.76;98709.75;1763462;81;21561;-39
2022/12/24 04:08:41;;;;;;;52.70;34.85;;;;;;;4.14;75.85;98704.85;1763705;81;21024;-39
2022/12/24 04:11:11;;;;;;;53.35;35.10;;;;;;;4.14;75.81;98702.17;1763503;81;21032;-39
2022/12/24 04:13:38;;;;;;;50.73;32.75;;;;;;;4.14;75.67;98712.91;1763395;81;21239;-39
2022/12/24 04:16:08;;;;;;;62.93;33.85;;;;;;;4.14;75.64;98706.98;1763321;81;20968;-39
2022/12/24 04:18:36;;;;;;;50.12;34.13;;;;;;;4.19;75.44;98708.66;1763853;81;21051;-39
2022/12/24 04:21:03;;;;;;;50.90;33.45;;;;;;;4.22;75.39;98707.98;1763399;81;21057;-39
2022/12/24 04:23:31;;;;;;;58.28;35.28;;;;;;;4.18;75.42;98701.73;1764177;81;21011;-39
2022/12/24 04:26:01;;;;;;;52.93;35.43;;;;;;;4.14;75.55;98702.95;1763561;81;21546;-39
2022/12/24 04:28:29;;;;;;;54.18;35.68;;;;;;;4.09;75.52;98697.02;1763937;81;20976;-39
2022/12/24 04:31:02;;;;;;;49.35;33.38;;;;;;;4.03;75.57;98692.42;1763736;81;21040;-39
2022/12/24 04:33:29;;;;;;;50.15;32.85;;;;;;;4.01;75.83;98693.88;1762754;81;21643;-39
2022/12/24 04:36:00;;;;;;;51.83;34.58;;;;;;;4.05;75.73;98690.20;1763666;81;21028;-39
2022/12/24 04:38:27;;;;;;;56.92;34.43;;;;;;;4.05;75.76;98694.78;1763923;81;21078;-39
2022/12/24 04:41:08;;;;;;;51.60;34.78;;;;;;;4.00;76.00;98692.31;1763563;81;20956;-39
2022/12/24 04:43:34;;;;;;;49.18;33.28;;;;;;;3.98;76.15;98693.19;1730718;81;21003;-39
2022/12/24 04:46:18;;;;;;;52.15;32.90;;;;;;;3.93;76.24;98700.33;1763581;81;21533;-39
2022/12/24 04:48:47;;;;;;;48.55;33.18;;;;;;;3.96;76.19;98698.11;1763773;81;21052;-39
2022/12/24 04:51:14;;;;;;;51.53;34.73;;;;;;;4.01;76.14;98698.69;1763649;81;21248;-39
2022/12/24 04:53:40;;;;;;;56.30;35.95;;;;;;;4.04;76.03;98699.91;1763497;81;21494;-39
2022/12/24 04:56:14;;;;;;;51.65;33.45;;;;;;;4.00;76.08;98699.02;1763586;81;20936;-39
2022/12/24 04:58:40;;;;;;;52.30;35.33;;;;;;;3.93;76.25;98695.52;1763948;81;20945;-39
2022/12/24 05:01:12;;;;;;;52.33;32.78;;;;;;;3.91;76.39;98697.22;1763348;81;21032;-39
2022/12/24 05:03:39;;;;;;;52.20;32.90;;;;;;;3.92;76.41;98693.39;1763698;81;21096;-39
2022/12/24 05:06:08;;;;;;;47.43;31.77;;;;;;;3.99;76.39;98701.46;1763436;81;20944;-39
2022/12/24 05:08:34;;;;;;;47.90;31.77;;;;;;;4.07;76.13;98696.55;1763757;81;21529;-39
2022/12/24 05:11:02;;;;;;;47.75;31.55;;;;;;;4.10;75.96;98703.95;1763428;81;21075;-39
2022/12/24 05:13:29;;;;;;;51.63;33.25;;;;;;;4.09;75.98;98713.90;1763821;81;21110;-39
2022/12/24 05:15:55;;;;;;;52.05;33.45;;;;;;;4.07;75.97;98707.28;1763318;81;21242;-39
2022/12/24 05:18:22;;;;;;;53.20;32.93;;;;;;;4.03;76.01;98709.06;1763460;81;20929;-39
2022/12/24 05:20:49;;;;;;;49.83;31.62;;;;;;;3.98;76.16;98712.75;1763257;81;21031;-39
2022/12/24 05:26:21;;;;;;;48.42;30.97;;;;;;;4.03;75.96;98702.36;1763305;81;21016;-39
2022/12/24 05:28:54;;;;;;;47.62;31.48;;;;;;;4.05;76.07;98704.17;1763621;81;21178;-39
2022/12/24 05:31:22;;;;;;;48.58;33.15;;;;;;;4.05;76.15;98707.64;1763423;81;20976;-39
2022/12/24 05:33:48;;;;;;;50.45;33.30;;;;;;;4.04;76.03;98714.66;1763314;81;20953;-39
2022/12/24 05:36:15;;;;;;;49.10;32.15;;;;;;;4.01;76.11;98716.12;1763464;81;21086;-39
2022/12/24 05:38:42;;;;;;;47.35;31.33;;;;;;;3.98;76.10;98715.98;1778262;80;21471;-39
2022/12/24 05:41:09;;;;;;;47.88;31.37;;;;;;;3.98;76.07;98720.79;1778686;80;21175;-39
2022/12/24 05:43:36;;;;;;;47.45;31.33;;;;;;;4.04;75.87;98720.81;1778822;80;20917;-39
2022/12/24 05:46:07;;;;;;;46.15;31.45;;;;;;;4.07;75.80;98723.38;1778674;80;21490;-39
2022/12/24 05:48:34;;;;;;;50.35;33.23;;;;;;;4.04;75.83;98722.70;1778729;80;20929;-39
2022/12/24 05:51:05;;;;;;;48.45;32.58;;;;;;;4.00;75.94;98721.26;1778572;80;21357;-38
2022/12/24 05:53:32;;;;;;;51.83;33.95;;;;;;;4.00;76.03;98730.64;1778662;80;23192;-39
2022/12/24 05:56:09;;;;;;;45.65;30.77;;;;;;;4.00;76.11;98725.83;1778550;80;20989;-39
2022/12/24 05:58:36;;;;;;;47.65;30.45;;;;;;;4.03;75.92;98724.61;1778801;80;21004;-39
2022/12/24 06:01:04;;;;;;;46.55;30.52;;;;;;;4.10;75.79;98726.75;1778647;80;21004;-39
2022/12/24 06:03:31;;;;;;;50.43;31.77;;;;;;;4.18;75.72;98728.00;1778681;80;21052;-39
2022/12/24 06:06:03;;;;;;;44.75;31.00;;;;;;;4.21;75.61;98733.27;1778540;80;21255;-39
2022/12/24 06:08:31;;;;;;;49.93;33.55;;;;;;;4.25;75.54;98739.53;1778594;80;21032;-39
2022/12/24 06:11:00;;;;;;;48.87;32.00;;;;;;;4.23;75.31;98729.13;1778591;80;21029;-39
2022/12/24 06:13:27;;;;;;;47.50;31.73;;;;;;;4.22;75.35;98731.58;1778610;80;21354;-39
2022/12/24 06:15:55;;;;;;;49.13;31.37;;;;;;;4.19;75.26;98728.23;1778595;80;21300;-39
2022/12/24 06:18:22;;;;;;;47.03;30.92;;;;;;;4.19;75.32;98738.96;1779076;80;21091;-39
2022/12/24 06:20:53;;;;;;;46.35;30.37;;;;;;;4.28;75.12;98744.23;1778583;80;21071;-39
2022/12/24 06:23:21;;;;;;;47.93;30.43;;;;;;;4.34;75.06;98745.59;1778888;80;20949;-39
2022/12/24 06:25:49;;;;;;;47.48;31.68;;;;;;;4.33;74.86;98744.02;1778813;80;20989;-39
2022/12/24 06:28:15;;;;;;;47.20;31.00;;;;;;;4.27;74.81;98738.08;1779112;80;21044;-39
2022/12/24 06:30:47;;;;;;;47.50;31.12;;;;;;;4.21;74.88;98739.98;1778813;80;21297;-39
2022/12/24 06:33:14;;;;;;;49.18;30.92;;;;;;;4.14;75.06;98737.83;1780728;80;21067;-39
2022/12/24 06:35:41;;;;;;;46.10;30.27;;;;;;;4.15;75.07;98734.59;1781539;80;21000;-39
2022/12/24 06:38:07;;;;;;;45.92;30.30;;;;;;;4.19;75.13;98740.86;1781696;80;21032;-39
2022/12/24 06:40:34;;;;;;;48.92;30.88;;;;;;;4.24;75.10;98750.04;1781717;80;21080;-39
2022/12/24 06:43:01;;;;;;;45.63;30.00;;;;;;;4.22;75.19;98749.57;1781401;80;21188;-39
2022/12/24 06:45:27;;;;;;;46.35;31.23;;;;;;;4.23;75.33;98749.80;1781471;80;21522;-39
2022/12/24 06:47:54;;;;;;;45.95;32.03;;;;;;;4.23;75.36;98754.61;1781345;80;21074;-39
2022/12/24 06:50:21;;;;;;;47.93;29.92;;;;;;;4.22;75.33;98753.59;1781401;80;20929;-39
2022/12/24 06:52:47;;;;;;;41.42;28.73;;;;;;;4.23;75.19;98749.25;1781426;80;21060;-39
2022/12/24 06:55:14;;;;;;;43.92;29.20;;;;;;;4.26;75.06;98753.94;1781593;80;21175;-39
2022/12/24 06:57:42;;;;;;;45.88;31.27;;;;;;;4.27;75.10;98742.10;1781426;80;20984;-39
2022/12/24 07:00:10;;;;;;;48.20;31.57;;;;;;;4.27;75.23;98737.28;1781356;80;20933;-39
2022/12/24 07:02:41;;;;;;;50.03;32.15;;;;;;;4.25;75.27;98739.53;1781430;80;21072;-39
2022/12/24 07:05:10;;;;;;;48.02;32.03;;;;;;;4.23;75.28;98738.52;1781317;80;20976;-39
2022/12/24 07:07:40;;;;;;;47.08;29.85;;;;;;;4.20;75.38;98739.75;1781710;80;21112;-39
2022/12/24 07:10:11;;;;;;;41.02;28.40;;;;;;;4.26;75.44;98746.48;1781207;80;20960;-39
2022/12/24 07:12:37;;;;;;;;;;;;;;;4.36;75.08;98742.78;1784566;80;21043;-39
2022/12/24 07:15:06;;;;;;;47.88;30.80;;;;;;;4.41;74.97;98739.66;1781436;80;20123;-39
2022/12/24 07:17:32;;;;;;;48.02;30.95;;;;;;;4.33;75.17;98744.80;1781719;80;21052;-39
2022/12/24 07:19:59;;;;;;;48.45;32.23;;;;;;;4.32;75.00;98742.44;1781408;80;21262;-39
2022/12/24 07:22:26;;;;;;;46.48;30.90;;;;;;;4.29;74.97;98741.22;1781427;80;20894;-39
2022/12/24 07:24:52;;;;;;;43.45;29.00;;;;;;;4.28;75.08;98749.59;1781610;80;21478;-39
2022/12/24 07:27:20;;;;;;;42.10;28.90;;;;;;;4.29;75.02;98750.61;1781647;80;20973;-39
2022/12/24 07:29:48;;;;;;;42.85;29.37;;;;;;;4.32;75.01;98745.13;1781818;80;21479;-39
2022/12/24 07:32:14;;;;;;;43.23;29.40;;;;;;;4.38;74.86;98744.59;1781284;80;21136;-39
2022/12/24 07:34:41;;;;;;;42.53;29.72;;;;;;;4.36;74.94;98740.66;1778790;80;20965;-39
2022/12/24 07:37:08;;;;;;;45.78;30.50;;;;;;;4.34;75.00;98738.88;1778449;80;21554;-39
2022/12/24 07:39:34;;;;;;;45.70;30.12;;;;;;;4.28;75.09;98735.63;1778556;80;21048;-39
2022/12/24 07:42:01;;;;;;;46.42;30.00;;;;;;;4.25;75.31;98738.20;1778662;80;21037;-39
2022/12/24 07:44:28;;;;;;;39.92;27.82;;;;;;;4.28;75.31;98742.33;1778714;80;23073;-39
2022/12/24 07:46:54;;;;;;;44.50;29.67;;;;;;;4.35;75.21;98739.11;1778758;80;20953;-39
2022/12/24 07:49:21;;;;;;;43.92;29.35;;;;;;;4.42;75.21;98744.70;1778878;80;20928;-39
2022/12/24 07:51:47;;;;;;;44.75;29.23;;;;;;;4.48;75.31;98743.92;1778839;80;20973;-39
2022/12/24 07:54:16;;;;;;;44.65;30.10;;;;;;;4.50;75.11;98741.15;1778887;80;20977;-39
2022/12/24 07:56:42;;;;;;;43.60;29.45;;;;;;;4.49;75.08;98740.92;1778781;80;21502;-39
2022/12/24 07:59:14;;;;;;;42.40;28.23;;;;;;;4.49;75.12;98736.89;1778762;80;20956;-39
2022/12/24 08:01:41;;;;;;;41.23;27.22;;;;;;;4.51;74.99;98737.33;1778850;80;21541;-39
2022/12/24 08:04:08;;;;;;;41.50;27.98;;;;;;;4.57;74.91;98738.67;1778773;80;21439;-39
2022/12/24 08:06:34;;;;;;;46.83;30.50;;;;;;;4.62;75.06;98741.14;1773911;80;20965;-39
2022/12/24 08:09:03;;;;;;;46.90;30.75;;;;;;;4.68;74.94;98744.39;1778632;80;21000;-39
2022/12/24 08:11:30;;;;;;;44.50;30.82;;;;;;;4.70;74.83;98746.95;1778575;80;20958;-39
2022/12/24 08:13:57;;;;;;;40.45;29.18;;;;;;;4.71;74.59;98748.53;1778811;80;20996;-39
2022/12/24 08:16:24;;;;;;;44.33;28.38;;;;;;;4.69;74.54;98752.13;1778929;80;21079;-39
2022/12/24 08:18:51;;;;;;;40.30;27.75;;;;;;;4.70;74.56;98750.20;1779007;80;21032;-39
2022/12/24 08:21:18;;;;;;;40.20;28.15;;;;;;;4.77;74.50;98747.20;1778839;80;21075;-39
2022/12/24 08:23:46;;;;;;;41.70;28.25;;;;;;;4.83;74.39;98747.77;1779106;80;20993;-39
2022/12/24 08:26:13;;;;;;;43.92;29.18;;;;;;;4.88;74.27;98740.82;1779077;80;21826;-39
2022/12/24 08:28:39;;;;;;;46.37;30.57;;;;;;;4.92;74.38;98745.73;1778996;80;21012;-39
2022/12/24 08:31:06;;;;;;;47.83;31.65;;;;;;;4.97;74.34;98732.64;1778716;80;20933;-39
2022/12/24 08:33:33;;;;;;;46.25;31.30;;;;;;;5.02;73.98;98736.44;1778628;80;23176;-39
2022/12/24 08:36:00;;;;;;;46.10;30.60;;;;;;;5.09;73.85;98731.27;1778485;80;20918;-39
2022/12/24 08:38:27;;;;;;;41.85;29.50;;;;;;;5.16;73.36;98736.31;1772832;80;21028;-39
2022/12/24 08:40:54;;;;;;;45.90;30.05;;;;;;;5.26;73.26;98737.75;1778439;80;21040;-39
2022/12/24 08:43:21;;;;;;;43.80;30.25;;;;;;;5.36;73.18;98742.66;1778922;80;21071;-39
2022/12/24 08:45:50;;;;;;;45.50;30.85;;;;;;;5.41;72.92;98736.27;1778668;80;21103;-39
2022/12/24 08:48:17;;;;;;;47.33;32.00;;;;;;;5.49;72.81;98749.56;1778859;80;21021;-39
2022/12/24 08:50:44;;;;;;;46.53;31.33;;;;;;;5.54;72.41;98748.54;1778816;80;20960;-39
2022/12/24 08:53:12;;;;;;;42.15;29.60;;;;;;;5.53;72.34;98741.03;1778791;80;20921;-39
2022/12/24 08:55:38;;;;;;;42.30;28.90;;;;;;;5.55;72.17;98744.17;1778841;80;21083;-39
2022/12/24 08:58:05;;;;;;;43.78;29.87;;;;;;;5.61;72.08;98744.16;1778819;80;22151;-39
2022/12/24 09:00:32;;;;;;;43.85;30.15;;;;;;;5.67;72.05;98744.13;1778741;80;21023;-39
2022/12/24 09:02:58;;;;;;;44.38;30.17;;;;;;;5.68;72.03;98744.34;1778625;80;21033;-39
2022/12/24 09:05:25;;;;;;;42.15;29.60;;;;;;;5.69;72.00;98753.20;1778636;80;21248;-39
2022/12/24 09:07:53;;;;;;;46.85;31.60;;;;;;;5.65;72.02;98744.25;1778828;80;21498;-40
2022/12/24 09:10:20;;;;;;;43.20;29.02;;;;;;;5.61;72.00;98743.37;1778919;80;21546;-40
2022/12/24 09:12:46;;;;;;;43.80;29.15;;;;;;;5.60;72.04;98744.50;1778871;80;20991;-39
2022/12/24 09:15:13;;;;;;;41.02;28.67;;;;;;;5.61;72.04;98750.89;1778696;80;21005;-40
2022/12/24 09:17:41;;;;;;;42.85;29.55;;;;;;;5.69;71.91;98755.89;1778885;80;21601;-40
2022/12/24 09:20:09;;;;;;;47.53;30.10;;;;;;;5.72;71.51;98747.12;1778781;80;21013;-40
2022/12/24 09:22:37;;;;;;;46.58;30.57;;;;;;;5.71;71.50;98741.55;1749527;80;21053;-39
2022/12/24 09:25:06;;;;;;;47.38;30.27;;;;;;;5.70;71.25;98735.95;1778769;80;21044;-40
2022/12/24 09:27:32;;;;;;;43.25;29.80;;;;;;;5.69;71.23;98748.61;1779330;80;21033;-39
2022/12/24 09:29:59;;;;;;;44.50;30.23;;;;;;;5.70;71.35;98749.39;1778939;80;20957;-40
2022/12/24 09:32:25;;;;;;;43.73;30.45;;;;;;;5.68;71.36;98756.45;1779020;80;21079;-40
2022/12/24 09:34:53;;;;;;;46.40;30.02;;;;;;;5.67;71.28;98753.53;1781181;80;23134;-40
2022/12/24 09:37:19;;;;;;;41.23;28.05;;;;;;;5.69;70.94;98758.58;1781783;80;21017;-40
2022/12/24 09:39:46;;;;;;;42.15;29.57;;;;;;;5.69;70.79;98756.67;1781712;80;20902;-40
2022/12/24 09:42:41;;;;;;;43.73;29.87;;;;;;;5.69;70.78;98752.64;1781560;80;21020;-40
2022/12/24 09:45:20;;;;;;;45.25;30.60;;;;;;;5.67;70.62;98756.22;1781648;80;21569;-39
2022/12/24 09:47:54;;;;;;;47.45;30.48;;;;;;;5.58;70.62;98763.65;1781721;80;21248;-40
2022/12/24 09:50:47;;;;;;;46.33;30.35;;;;;;;5.50;70.90;98753.82;1781555;80;21020;-39
2022/12/24 09:53:22;;;;;;;48.23;31.80;;;;;;;5.44;70.90;98748.45;1781523;80;20973;-40
2022/12/24 09:55:53;;;;;;;43.80;29.55;;;;;;;5.40;71.14;98748.91;1781376;80;21029;-39
2022/12/24 09:58:25;;;;;;;44.73;30.17;;;;;;;5.15;70.96;98707.09;1781519;80;21033;-39
2022/12/24 10:00:52;;;;;;;45.92;30.12;;;;;;;5.41;70.99;98746.45;1781487;80;21192;-40
2022/12/24 10:03:18;;;;;;;44.63;29.70;;;;;;;5.45;71.00;98752.71;1781348;80;20925;-39
2022/12/24 10:06:00;;;;;;;43.70;30.00;;;;;;;5.45;71.14;98751.92;1781431;80;21586;-40
2022/12/24 10:08:47;;;;;;;48.95;32.23;;;;;;;5.44;71.05;98744.42;1781493;80;20985;-39
2022/12/24 10:11:52;;;;;;;48.60;32.65;;;;;;;5.46;71.17;98746.78;1781291;80;21088;-40
2022/12/24 10:14:31;;;;;;;48.73;32.48;;;;;;;5.48;71.04;98756.05;1781635;80;21593;-40
2022/12/24 10:17:19;;;;;;;44.53;29.23;;;;;;;5.45;71.06;98745.99;1781771;80;21064;-39
2022/12/24 10:20:03;;;;;;;45.78;29.25;;;;;;;5.47;71.04;98755.83;1781230;80;21079;-39
2022/12/24 10:22:36;;;;;;;44.63;29.48;;;;;;;5.55;70.96;98759.52;1781598;80;21005;-39
2022/12/24 10:25:17;;;;;;;48.58;30.52;;;;;;;5.60;71.11;98756.59;1780113;80;20978;-39
2022/12/24 10:27:44;;;;;;;47.27;30.57;;;;;;;5.65;71.02;98763.08;1781931;80;21099;-39
2022/12/24 10:30:18;;;;;;;47.15;31.52;;;;;;;5.68;70.88;98757.00;1781450;80;20945;-40
2022/12/24 10:32:47;;;;;;;47.93;31.37;;;;;;;5.67;70.68;98764.29;1781765;80;21028;-40
2022/12/24 10:35:19;;;;;;;47.10;31.30;;;;;;;5.64;70.69;98767.67;1778853;80;20914;-40
2022/12/24 10:37:47;;;;;;;42.95;29.80;;;;;;;5.60;70.80;98768.14;1778699;80;21007;-40
2022/12/24 10:40:31;;;;;;;42.65;29.72;;;;;;;5.60;70.89;98764.66;1778787;80;21246;-40
2022/12/24 10:42:58;;;;;;;43.90;29.55;;;;;;;5.65;71.06;98763.08;1778675;80;20922;-39
2022/12/24 10:45:28;;;;;;;48.60;31.93;;;;;;;5.69;71.07;98760.71;1778719;80;21000;-40
2022/12/24 10:47:57;;;;;;;46.15;30.68;;;;;;;5.69;71.04;98763.40;1779012;80;21538;-40
2022/12/24 10:50:34;;;;;;;45.55;31.85;;;;;;;5.68;71.21;98767.20;1779002;80;20960;-40
2022/12/24 10:53:24;;;;;;;52.03;33.20;;;;;;;5.65;71.31;98769.24;1778634;80;21152;-40
2022/12/24 10:55:53;;;;;;;47.27;31.60;;;;;;;5.62;71.56;98773.16;1778710;80;20969;-39
2022/12/24 10:58:20;;;;;;;47.23;31.52;;;;;;;5.63;71.83;98770.69;1724884;80;20937;-40
2022/12/24 11:00:52;;;;;;;45.40;29.90;;;;;;;5.73;72.00;98774.81;1778682;80;21099;-40
2022/12/24 11:03:34;;;;;;;45.73;31.95;;;;;;;5.79;72.02;98763.48;1779079;80;21145;-40
2022/12/24 11:06:14;;;;;;;50.05;32.25;;;;;;;5.84;72.12;98767.27;1778846;80;22057;-40
2022/12/24 11:08:42;;;;;;;;;;;;;;;5.89;72.12;98771.09;1781458;80;21510;-41
2022/12/24 11:11:19;;;;;;;47.20;31.80;;;;;;;5.94;72.22;98771.41;1778844;80;20162;-41
2022/12/24 11:13:54;;;;;;;51.33;34.90;;;;;;;5.88;72.16;98771.42;1779051;80;20976;-41
2022/12/24 11:16:35;;;;;;;44.95;31.35;;;;;;;5.91;72.02;98772.08;1778862;80;21040;-40
2022/12/24 11:19:05;;;;;;;45.28;30.80;;;;;;;5.95;71.94;98776.45;1772009;80;23188;-40
2022/12/24 11:21:38;;;;;;;46.77;30.90;;;;;;;6.04;71.68;98770.92;1778432;80;21095;-41
2022/12/24 11:24:10;;;;;;;46.75;32.05;;;;;;;6.10;71.57;98776.25;1778622;80;21574;-41
2022/12/24 11:26:37;;;;;;;47.33;32.20;;;;;;;6.12;71.53;98771.32;1774084;80;20933;-41
2022/12/24 11:29:22;;;;;;;44.80;32.13;;;;;;;6.16;71.37;98774.09;1778622;80;21107;-41
2022/12/24 11:31:51;;;;;;;49.10;33.92;;;;;;;6.21;71.32;98769.25;1778592;80;21156;-41
2022/12/24 11:34:27;;;;;;;48.78;32.83;;;;;;;6.25;71.13;98756.67;1752706;80;21008;-41
2022/12/24 11:39:11;;;;;;;44.93;30.68;;;;;;;6.33;70.65;98754.95;1773454;79;23114;-39
2022/12/24 11:41:38;;;;;;;48.33;32.45;;;;;;;6.34;70.44;98767.30;1716361;82;20911;-39
2022/12/24 11:44:07;;;;;;;48.02;33.05;;;;;;;6.37;69.98;98765.25;1715765;82;23111;-39
2022/12/24 11:46:40;;;;;;;46.75;32.00;;;;;;;6.32;69.92;98760.90;1746435;82;21532;-39
2022/12/24 11:49:23;;;;;;;48.90;32.63;;;;;;;6.29;70.11;98768.33;1757095;80;21017;-39